sensor_id;sensor_type;location;lat;lon;timestamp;noise_LAeq;noise_LA_min;noise_LA_max;noise_LA01;noise_LA95
46749;Laerm;33775;47.992;11.864;2024-01-30T00:00:31;36.24;29.92;39.58;;
46749;Laerm;33775;47.992;11.864;2024-01-30T00:02:56;36.20;29.92;39.34;;
46749;Laerm;33775;47.992;11.864;2024-01-30T00:05:21;36.20;29.92;39.46;;
46749;Laerm;33775;47.992;11.864;2024-01-30T00:07:47;36.17;29.92;39.58;;
46749;Laerm;33775;47.992;11.864;2024-01-30T00:10:12;36.17;30.89;39.08;;
46749;Laerm;33775;47.992;11.864;2024-01-30T00:12:37;36.17;26.91;39.08;;
46749;Laerm;33775;47.992;11.864;2024-01-30T00:15:02;36.15;29.92;39.23;;
46749;Laerm;33775;47.992;11.864;2024-01-30T00:17:29;36.18;29.92;39.81;;
46749;Laerm;33775;47.992;11.864;2024-01-30T00:19:55;36.16;28.67;39.08;;
46749;Laerm;33775;47.992;11.864;2024-01-30T00:22:20;36.13;29.92;39.58;;
46749;Laerm;33775;47.992;11.864;2024-01-30T00:24:45;36.19;28.67;39.21;;
46749;Laerm;33775;47.992;11.864;2024-01-30T00:27:10;36.17;23.90;39.81;;
46749;Laerm;33775;47.992;11.864;2024-01-30T00:29:36;36.24;28.67;39.46;;
46749;Laerm;33775;47.992;11.864;2024-01-30T00:32:01;36.25;26.91;39.46;;
46749;Laerm;33775;47.992;11.864;2024-01-30T00:34:26;36.21;26.91;39.34;;
46749;Laerm;33775;47.992;11.864;2024-01-30T00:36:51;36.22;23.90;39.34;;
46749;Laerm;33775;47.992;11.864;2024-01-30T00:39:16;36.15;29.92;39.21;;
46749;Laerm;33775;47.992;11.864;2024-01-30T00:41:44;36.14;28.67;39.08;;
46749;Laerm;33775;47.992;11.864;2024-01-30T00:44:09;36.16;29.92;39.21;;
46749;Laerm;33775;47.992;11.864;2024-01-30T00:46:34;36.16;28.67;38.95;;
46749;Laerm;33775;47.992;11.864;2024-01-30T00:49:00;36.17;28.67;39.21;;
46749;Laerm;33775;47.992;11.864;2024-01-30T00:51:25;36.17;23.90;39.58;;
46749;Laerm;33775;47.992;11.864;2024-01-30T00:53:50;36.18;30.89;39.46;;
46749;Laerm;33775;47.992;11.864;2024-01-30T00:56:15;36.21;28.67;39.21;;
46749;Laerm;33775;47.992;11.864;2024-01-30T00:58:43;36.17;28.32;39.08;;
46749;Laerm;33775;47.992;11.864;2024-01-30T01:01:08;36.15;28.67;39.46;;
46749;Laerm;33775;47.992;11.864;2024-01-30T01:03:33;36.15;28.67;39.70;;
46749;Laerm;33775;47.992;11.864;2024-01-30T01:05:58;36.16;29.92;39.58;;
46749;Laerm;33775;47.992;11.864;2024-01-30T01:08:24;36.11;28.67;39.08;;
46749;Laerm;33775;47.992;11.864;2024-01-30T01:10:50;36.15;23.90;39.21;;
46749;Laerm;33775;47.992;11.864;2024-01-30T01:13:15;36.17;28.32;39.58;;
46749;Laerm;33775;47.992;11.864;2024-01-30T01:15:40;36.14;29.92;39.34;;
46749;Laerm;33775;47.992;11.864;2024-01-30T01:18:05;36.11;28.67;39.46;;
46749;Laerm;33775;47.992;11.864;2024-01-30T01:20:30;36.07;26.91;39.58;;
46749;Laerm;33775;47.992;11.864;2024-01-30T01:22:56;36.10;29.92;39.21;;
46749;Laerm;33775;47.992;11.864;2024-01-30T01:25:21;36.10;26.91;39.21;;
46749;Laerm;33775;47.992;11.864;2024-01-30T01:27:46;36.13;26.91;39.21;;
46749;Laerm;33775;47.992;11.864;2024-01-30T01:30:16;36.15;28.67;39.08;;
46749;Laerm;33775;47.992;11.864;2024-01-30T01:32:46;36.17;29.92;39.46;;
46749;Laerm;33775;47.992;11.864;2024-01-30T01:35:15;36.12;28.67;39.21;;
46749;Laerm;33775;47.992;11.864;2024-01-30T01:37:41;36.06;28.67;39.08;;
46749;Laerm;33775;47.992;11.864;2024-01-30T01:40:06;36.11;28.67;39.21;;
46749;Laerm;33775;47.992;11.864;2024-01-30T01:42:31;36.09;28.67;39.21;;
46749;Laerm;33775;47.992;11.864;2024-01-30T01:44:57;36.09;23.90;39.21;;
46749;Laerm;33775;47.992;11.864;2024-01-30T01:47:22;36.06;28.67;39.34;;
46749;Laerm;33775;47.992;11.864;2024-01-30T01:49:47;36.08;29.57;39.23;;
46749;Laerm;33775;47.992;11.864;2024-01-30T01:52:12;36.09;26.91;39.46;;
46749;Laerm;33775;47.992;11.864;2024-01-30T01:54:38;36.14;28.67;39.21;;
46749;Laerm;33775;47.992;11.864;2024-01-30T01:57:03;36.16;26.91;39.34;;
46749;Laerm;33775;47.992;11.864;2024-01-30T01:59:28;36.17;29.92;39.34;;
46749;Laerm;33775;47.992;11.864;2024-01-30T02:01:54;36.19;28.67;39.21;;
46749;Laerm;33775;47.992;11.864;2024-01-30T02:04:20;36.22;28.67;39.34;;
46749;Laerm;33775;47.992;11.864;2024-01-30T02:06:45;36.19;28.67;39.08;;
46749;Laerm;33775;47.992;11.864;2024-01-30T02:09:11;36.18;28.67;39.34;;
46749;Laerm;33775;47.992;11.864;2024-01-30T02:11:36;36.15;23.90;39.21;;
46749;Laerm;33775;47.992;11.864;2024-01-30T02:14:04;36.21;29.57;39.46;;
46749;Laerm;33775;47.992;11.864;2024-01-30T02:16:30;36.20;26.91;39.08;;
46749;Laerm;33775;47.992;11.864;2024-01-30T02:18:55;36.18;28.67;39.34;;
46749;Laerm;33775;47.992;11.864;2024-01-30T02:21:20;36.15;28.67;39.70;;
46749;Laerm;33775;47.992;11.864;2024-01-30T02:23:49;36.13;28.67;39.08;;
46749;Laerm;33775;47.992;11.864;2024-01-30T02:26:15;36.15;28.67;39.34;;
46749;Laerm;33775;47.992;11.864;2024-01-30T02:28:40;36.18;23.90;39.21;;
46749;Laerm;33775;47.992;11.864;2024-01-30T02:31:06;36.19;26.91;39.70;;
46749;Laerm;33775;47.992;11.864;2024-01-30T02:33:31;36.17;29.92;39.58;;
46749;Laerm;33775;47.992;11.864;2024-01-30T02:35:56;36.19;29.92;39.08;;
46749;Laerm;33775;47.992;11.864;2024-01-30T02:38:21;36.18;28.67;39.46;;
46749;Laerm;33775;47.992;11.864;2024-01-30T02:40:48;36.18;29.92;38.95;;
46749;Laerm;33775;47.992;11.864;2024-01-30T02:43:13;36.18;28.67;39.21;;
46749;Laerm;33775;47.992;11.864;2024-01-30T02:45:38;36.14;29.92;39.46;;
46749;Laerm;33775;47.992;11.864;2024-01-30T02:48:03;36.12;28.67;39.58;;
46749;Laerm;33775;47.992;11.864;2024-01-30T02:50:29;36.17;26.91;39.34;;
46749;Laerm;33775;47.992;11.864;2024-01-30T02:52:54;36.21;29.92;39.21;;
46749;Laerm;33775;47.992;11.864;2024-01-30T02:55:19;36.16;29.92;39.58;;
46749;Laerm;33775;47.992;11.864;2024-01-30T02:57:44;36.18;28.67;39.58;;
46749;Laerm;33775;47.992;11.864;2024-01-30T03:00:10;36.17;26.91;39.21;;
46749;Laerm;33775;47.992;11.864;2024-01-30T03:02:35;36.20;26.91;39.46;;
46749;Laerm;33775;47.992;11.864;2024-01-30T03:05:01;36.16;28.67;39.34;;
46749;Laerm;33775;47.992;11.864;2024-01-30T03:07:26;36.14;28.67;39.34;;
46749;Laerm;33775;47.992;11.864;2024-01-30T03:09:51;36.12;28.67;39.21;;
46749;Laerm;33775;47.992;11.864;2024-01-30T03:12:16;36.15;28.67;39.46;;
46749;Laerm;33775;47.992;11.864;2024-01-30T03:14:42;36.17;28.67;39.08;;
46749;Laerm;33775;47.992;11.864;2024-01-30T03:17:07;36.19;28.67;39.34;;
46749;Laerm;33775;47.992;11.864;2024-01-30T03:19:32;36.16;28.67;39.70;;
46749;Laerm;33775;47.992;11.864;2024-01-30T03:21:58;36.18;26.91;39.46;;
46749;Laerm;33775;47.992;11.864;2024-01-30T03:24:23;36.16;29.92;39.21;;
46749;Laerm;33775;47.992;11.864;2024-01-30T03:26:48;36.14;23.90;39.46;;
46749;Laerm;33775;47.992;11.864;2024-01-30T03:29:13;36.19;28.67;39.08;;
46749;Laerm;33775;47.992;11.864;2024-01-30T03:31:39;36.18;26.91;39.23;;
46749;Laerm;33775;47.992;11.864;2024-01-30T03:34:04;36.19;26.91;39.08;;
46749;Laerm;33775;47.992;11.864;2024-01-30T03:36:29;36.16;28.67;39.21;;
46749;Laerm;33775;47.992;11.864;2024-01-30T03:38:57;36.13;26.91;39.34;;
46749;Laerm;33775;47.992;11.864;2024-01-30T03:41:23;36.15;26.91;39.21;;
46749;Laerm;33775;47.992;11.864;2024-01-30T03:43:48;36.15;28.67;39.08;;
46749;Laerm;33775;47.992;11.864;2024-01-30T03:46:13;36.20;28.67;39.08;;
46749;Laerm;33775;47.992;11.864;2024-01-30T03:48:38;36.18;28.67;39.21;;
46749;Laerm;33775;47.992;11.864;2024-01-30T03:51:04;36.21;29.92;39.08;;
46749;Laerm;33775;47.992;11.864;2024-01-30T03:53:29;36.25;28.32;39.21;;
46749;Laerm;33775;47.992;11.864;2024-01-30T03:55:55;36.25;29.92;39.58;;
46749;Laerm;33775;47.992;11.864;2024-01-30T03:58:20;36.27;26.91;39.58;;
46749;Laerm;33775;47.992;11.864;2024-01-30T04:00:45;36.21;28.67;39.08;;
46749;Laerm;33775;47.992;11.864;2024-01-30T04:03:10;36.20;28.67;39.21;;
46749;Laerm;33775;47.992;11.864;2024-01-30T04:05:35;36.16;28.67;39.34;;
46749;Laerm;33775;47.992;11.864;2024-01-30T04:08:01;36.10;28.67;39.21;;
46749;Laerm;33775;47.992;11.864;2024-01-30T04:10:26;36.11;28.67;39.46;;
46749;Laerm;33775;47.992;11.864;2024-01-30T04:12:51;36.13;28.67;39.21;;
46749;Laerm;33775;47.992;11.864;2024-01-30T04:15:19;36.15;28.67;39.34;;
46749;Laerm;33775;47.992;11.864;2024-01-30T04:17:44;36.12;28.67;39.21;;
46749;Laerm;33775;47.992;11.864;2024-01-30T04:20:13;36.22;28.67;39.08;;
46749;Laerm;33775;47.992;11.864;2024-01-30T04:22:39;36.22;28.67;39.34;;
46749;Laerm;33775;47.992;11.864;2024-01-30T04:25:04;36.22;26.91;39.58;;
46749;Laerm;33775;47.992;11.864;2024-01-30T04:27:29;36.22;29.92;39.46;;
46749;Laerm;33775;47.992;11.864;2024-01-30T04:29:54;36.17;28.67;39.11;;
46749;Laerm;33775;47.992;11.864;2024-01-30T04:32:19;36.20;29.92;39.21;;
46749;Laerm;33775;47.992;11.864;2024-01-30T04:34:45;36.21;29.92;39.08;;
46749;Laerm;33775;47.992;11.864;2024-01-30T04:37:10;36.22;29.92;39.21;;
46749;Laerm;33775;47.992;11.864;2024-01-30T04:39:35;36.22;26.91;38.95;;
46749;Laerm;33775;47.992;11.864;2024-01-30T04:42:01;36.25;29.92;39.34;;
46749;Laerm;33775;47.992;11.864;2024-01-30T04:44:27;36.27;29.92;39.08;;
46749;Laerm;33775;47.992;11.864;2024-01-30T04:46:52;36.21;28.67;39.21;;
46749;Laerm;33775;47.992;11.864;2024-01-30T04:49:17;36.22;29.92;39.58;;
46749;Laerm;33775;47.992;11.864;2024-01-30T04:51:42;36.25;28.67;38.95;;
46749;Laerm;33775;47.992;11.864;2024-01-30T04:54:07;36.21;28.67;39.46;;
46749;Laerm;33775;47.992;11.864;2024-01-30T04:56:33;36.25;26.91;39.34;;
46749;Laerm;33775;47.992;11.864;2024-01-30T04:58:59;36.22;29.92;39.21;;
46749;Laerm;33775;47.992;11.864;2024-01-30T05:01:24;36.24;26.56;39.58;;
46749;Laerm;33775;47.992;11.864;2024-01-30T05:03:49;36.24;28.67;39.08;;
46749;Laerm;33775;47.992;11.864;2024-01-30T05:06:23;36.22;28.67;39.70;;
46749;Laerm;33775;47.992;11.864;2024-01-30T05:08:48;36.19;29.92;39.21;;
46749;Laerm;33775;47.992;11.864;2024-01-30T05:11:14;36.17;29.92;39.46;;
46749;Laerm;33775;47.992;11.864;2024-01-30T05:13:39;36.21;28.67;39.08;;
46749;Laerm;33775;47.992;11.864;2024-01-30T05:16:04;36.18;28.67;38.95;;
46749;Laerm;33775;47.992;11.864;2024-01-30T05:18:29;36.21;29.92;39.08;;
46749;Laerm;33775;47.992;11.864;2024-01-30T05:20:54;36.18;26.91;39.21;;
46749;Laerm;33775;47.992;11.864;2024-01-30T05:23:20;36.24;28.67;39.21;;
46749;Laerm;33775;47.992;11.864;2024-01-30T05:25:45;36.19;26.91;39.46;;
46749;Laerm;33775;47.992;11.864;2024-01-30T05:28:10;36.23;26.91;39.92;;
46749;Laerm;33775;47.992;11.864;2024-01-30T05:30:35;36.22;29.92;39.21;;
46749;Laerm;33775;47.992;11.864;2024-01-30T05:33:01;36.22;28.67;39.21;;
46749;Laerm;33775;47.992;11.864;2024-01-30T05:35:26;36.22;28.67;39.34;;
46749;Laerm;33775;47.992;11.864;2024-01-30T05:37:51;36.26;28.67;39.21;;
46749;Laerm;33775;47.992;11.864;2024-01-30T05:40:16;36.27;29.92;39.21;;
46749;Laerm;33775;47.992;11.864;2024-01-30T05:42:41;36.22;29.92;39.08;;
46749;Laerm;33775;47.992;11.864;2024-01-30T05:45:07;36.23;29.92;39.81;;
46749;Laerm;33775;47.992;11.864;2024-01-30T05:47:33;36.20;28.67;39.21;;
46749;Laerm;33775;47.992;11.864;2024-01-30T05:49:58;36.22;30.89;39.21;;
46749;Laerm;33775;47.992;11.864;2024-01-30T05:52:23;36.24;29.92;38.99;;
46749;Laerm;33775;47.992;11.864;2024-01-30T05:54:48;36.23;28.67;39.21;;
46749;Laerm;33775;47.992;11.864;2024-01-30T05:57:13;36.25;28.67;39.08;;
46749;Laerm;33775;47.992;11.864;2024-01-30T05:59:39;36.31;26.91;39.34;;
46749;Laerm;33775;47.992;11.864;2024-01-30T06:02:04;36.34;28.67;39.46;;
46749;Laerm;33775;47.992;11.864;2024-01-30T06:04:29;36.30;29.92;39.46;;
46749;Laerm;33775;47.992;11.864;2024-01-30T06:06:54;36.29;28.67;39.21;;
46749;Laerm;33775;47.992;11.864;2024-01-30T06:09:20;36.29;29.92;39.21;;
46749;Laerm;33775;47.992;11.864;2024-01-30T06:11:45;36.32;29.92;39.46;;
46749;Laerm;33775;47.992;11.864;2024-01-30T06:14:10;36.31;29.92;39.21;;
46749;Laerm;33775;47.992;11.864;2024-01-30T06:16:36;36.30;23.90;39.70;;
46749;Laerm;33775;47.992;11.864;2024-01-30T06:19:01;36.29;29.92;39.46;;
46749;Laerm;33775;47.992;11.864;2024-01-30T06:21:26;36.31;23.90;39.21;;
46749;Laerm;33775;47.992;11.864;2024-01-30T06:23:51;36.29;26.91;39.23;;
46749;Laerm;33775;47.992;11.864;2024-01-30T06:26:16;36.33;28.67;39.08;;
46749;Laerm;33775;47.992;11.864;2024-01-30T06:28:42;36.30;23.90;39.08;;
46749;Laerm;33775;47.992;11.864;2024-01-30T06:31:07;36.33;29.92;39.08;;
46749;Laerm;33775;47.992;11.864;2024-01-30T06:33:32;36.36;29.92;39.21;;
46749;Laerm;33775;47.992;11.864;2024-01-30T06:35:57;36.33;28.67;39.34;;
46749;Laerm;33775;47.992;11.864;2024-01-30T06:38:23;36.34;30.89;39.34;;
46749;Laerm;33775;47.992;11.864;2024-01-30T06:40:48;36.34;29.92;39.21;;
46749;Laerm;33775;47.992;11.864;2024-01-30T06:43:13;36.38;28.67;39.34;;
46749;Laerm;33775;47.992;11.864;2024-01-30T06:45:38;36.37;29.92;39.21;;
46749;Laerm;33775;47.992;11.864;2024-01-30T06:48:04;36.43;28.67;39.34;;
46749;Laerm;33775;47.992;11.864;2024-01-30T06:50:29;36.38;30.89;39.34;;
46749;Laerm;33775;47.992;11.864;2024-01-30T06:52:54;36.41;23.90;39.21;;
46749;Laerm;33775;47.992;11.864;2024-01-30T06:55:19;36.37;29.92;39.81;;
46749;Laerm;33775;47.992;11.864;2024-01-30T06:57:45;36.38;26.91;39.46;;
46749;Laerm;33775;47.992;11.864;2024-01-30T07:00:10;36.37;26.91;39.46;;
46749;Laerm;33775;47.992;11.864;2024-01-30T07:02:35;36.35;28.32;39.46;;
46749;Laerm;33775;47.992;11.864;2024-01-30T07:05:01;36.39;28.67;39.21;;
46749;Laerm;33775;47.992;11.864;2024-01-30T07:07:27;36.39;28.67;39.58;;
46749;Laerm;33775;47.992;11.864;2024-01-30T07:09:53;36.40;28.67;39.58;;
46749;Laerm;33775;47.992;11.864;2024-01-30T07:12:21;36.39;30.54;39.21;;
46749;Laerm;33775;47.992;11.864;2024-01-30T07:14:46;36.42;26.91;39.21;;
46749;Laerm;33775;47.992;11.864;2024-01-30T07:17:12;36.41;28.67;39.34;;
46749;Laerm;33775;47.992;11.864;2024-01-30T07:19:37;36.42;30.89;39.34;;
46749;Laerm;33775;47.992;11.864;2024-01-30T07:22:02;36.43;31.68;39.21;;
46749;Laerm;33775;47.992;11.864;2024-01-30T07:24:27;36.44;29.92;39.21;;
46749;Laerm;33775;47.992;11.864;2024-01-30T07:26:52;36.42;28.67;39.34;;
46749;Laerm;33775;47.992;11.864;2024-01-30T07:29:17;36.52;30.89;39.46;;
46749;Laerm;33775;47.992;11.864;2024-01-30T07:31:43;36.73;32.00;39.34;;
46749;Laerm;33775;47.992;11.864;2024-01-30T07:34:08;36.95;32.35;39.70;;
46749;Laerm;33775;47.992;11.864;2024-01-30T07:36:33;37.15;32.35;40.43;;
46749;Laerm;33775;47.992;11.864;2024-01-30T07:38:59;37.13;32.35;40.03;;
46749;Laerm;33775;47.992;11.864;2024-01-30T07:41:24;36.96;30.89;40.13;;
46749;Laerm;33775;47.992;11.864;2024-01-30T07:43:50;36.87;30.89;39.70;;
46749;Laerm;33775;47.992;11.864;2024-01-30T07:46:15;36.87;30.89;39.70;;
46749;Laerm;33775;47.992;11.864;2024-01-30T07:48:40;36.82;30.89;39.81;;
46749;Laerm;33775;47.992;11.864;2024-01-30T07:51:05;36.83;30.89;40.33;;
46749;Laerm;33775;47.992;11.864;2024-01-30T07:53:30;36.90;31.68;39.92;;
46749;Laerm;33775;47.992;11.864;2024-01-30T07:55:56;37.03;30.89;40.13;;
46749;Laerm;33775;47.992;11.864;2024-01-30T07:58:21;37.14;32.93;40.23;;
46749;Laerm;33775;47.992;11.864;2024-01-30T08:00:46;37.16;32.93;40.23;;
46749;Laerm;33775;47.992;11.864;2024-01-30T08:03:11;37.15;32.93;40.53;;
46749;Laerm;33775;47.992;11.864;2024-01-30T08:05:37;37.11;32.35;39.70;;
46749;Laerm;33775;47.992;11.864;2024-01-30T08:08:04;37.08;32.35;39.81;;
46749;Laerm;33775;47.992;11.864;2024-01-30T08:10:29;37.03;30.89;39.81;;
46749;Laerm;33775;47.992;11.864;2024-01-30T08:12:54;37.03;32.35;39.58;;
46749;Laerm;33775;47.992;11.864;2024-01-30T08:15:19;37.01;32.35;40.03;;
46749;Laerm;33775;47.992;11.864;2024-01-30T08:17:44;37.00;32.35;39.70;;
46749;Laerm;33775;47.992;11.864;2024-01-30T08:20:10;37.00;31.68;39.70;;
46749;Laerm;33775;47.992;11.864;2024-01-30T08:22:38;37.02;32.93;39.92;;
46749;Laerm;33775;47.992;11.864;2024-01-30T08:25:03;36.98;31.68;40.23;;
46749;Laerm;33775;47.992;11.864;2024-01-30T08:27:28;36.97;31.68;39.58;;
46749;Laerm;33775;47.992;11.864;2024-01-30T08:29:54;36.91;32.35;39.34;;
46749;Laerm;33775;47.992;11.864;2024-01-30T08:32:19;36.90;31.68;39.58;;
46749;Laerm;33775;47.992;11.864;2024-01-30T08:34:44;36.88;32.35;39.58;;
46749;Laerm;33775;47.992;11.864;2024-01-30T08:37:09;36.87;32.35;39.81;;
46749;Laerm;33775;47.992;11.864;2024-01-30T08:39:34;36.89;32.35;39.46;;
46749;Laerm;33775;47.992;11.864;2024-01-30T08:42:00;36.93;32.35;39.70;;
46749;Laerm;33775;47.992;11.864;2024-01-30T08:44:25;36.95;30.89;39.92;;
46749;Laerm;33775;47.992;11.864;2024-01-30T08:46:50;36.96;29.92;40.13;;
46749;Laerm;33775;47.992;11.864;2024-01-30T08:49:19;37.01;31.68;40.53;;
46749;Laerm;33775;47.992;11.864;2024-01-30T08:51:45;37.02;32.93;39.58;;
46749;Laerm;33775;47.992;11.864;2024-01-30T08:54:10;37.09;32.93;39.58;;
46749;Laerm;33775;47.992;11.864;2024-01-30T08:56:36;37.12;31.68;39.70;;
46749;Laerm;33775;47.992;11.864;2024-01-30T08:59:01;37.11;33.44;39.70;;
46749;Laerm;33775;47.992;11.864;2024-01-30T09:01:26;37.16;32.35;40.13;;
46749;Laerm;33775;47.992;11.864;2024-01-30T09:03:52;37.15;32.93;40.03;;
46749;Laerm;33775;47.992;11.864;2024-01-30T09:06:17;37.17;32.93;40.03;;
46749;Laerm;33775;47.992;11.864;2024-01-30T09:08:43;37.17;32.93;40.23;;
46749;Laerm;33775;47.992;11.864;2024-01-30T09:11:11;37.24;33.44;40.03;;
46749;Laerm;33775;47.992;11.864;2024-01-30T09:13:37;37.26;32.35;40.03;;
46749;Laerm;33775;47.992;11.864;2024-01-30T09:16:03;37.27;32.35;40.03;;
46749;Laerm;33775;47.992;11.864;2024-01-30T09:18:28;37.27;32.93;40.13;;
46749;Laerm;33775;47.992;11.864;2024-01-30T09:20:53;37.26;30.89;39.81;;
46749;Laerm;33775;47.992;11.864;2024-01-30T09:23:18;37.29;32.93;40.18;;
46749;Laerm;33775;47.992;11.864;2024-01-30T09:25:44;37.28;32.93;40.62;;
46749;Laerm;33775;47.992;11.864;2024-01-30T09:28:09;37.27;32.93;39.92;;
46749;Laerm;33775;47.992;11.864;2024-01-30T09:30:35;37.28;32.35;40.23;;
46749;Laerm;33775;47.992;11.864;2024-01-30T09:33:00;37.27;31.68;39.92;;
46749;Laerm;33775;47.992;11.864;2024-01-30T09:35:25;37.31;31.68;40.23;;
46749;Laerm;33775;47.992;11.864;2024-01-30T09:37:50;37.28;31.68;40.13;;
46749;Laerm;33775;47.992;11.864;2024-01-30T09:40:17;37.29;31.68;40.53;;
46749;Laerm;33775;47.992;11.864;2024-01-30T09:42:44;37.28;32.93;40.03;;
46749;Laerm;33775;47.992;11.864;2024-01-30T09:45:11;37.23;31.68;40.08;;
46749;Laerm;33775;47.992;11.864;2024-01-30T09:47:42;37.22;31.68;40.13;;
46749;Laerm;33775;47.992;11.864;2024-01-30T09:50:08;37.18;29.92;40.23;;
46749;Laerm;33775;47.992;11.864;2024-01-30T09:52:33;37.14;30.89;40.03;;
46749;Laerm;33775;47.992;11.864;2024-01-30T09:54:59;37.13;32.35;40.43;;
46749;Laerm;33775;47.992;11.864;2024-01-30T09:57:25;37.11;31.68;39.81;;
46749;Laerm;33775;47.992;11.864;2024-01-30T09:59:51;37.08;32.93;40.23;;
46749;Laerm;33775;47.992;11.864;2024-01-30T10:02:17;37.05;30.89;40.13;;
46749;Laerm;33775;47.992;11.864;2024-01-30T10:04:42;37.03;31.68;39.70;;
46749;Laerm;33775;47.992;11.864;2024-01-30T10:07:08;37.02;31.68;40.03;;
46749;Laerm;33775;47.992;11.864;2024-01-30T10:09:36;36.99;31.68;40.13;;
46749;Laerm;33775;47.992;11.864;2024-01-30T10:12:01;36.98;29.92;40.03;;
46749;Laerm;33775;47.992;11.864;2024-01-30T10:14:28;36.98;32.35;39.81;;
46749;Laerm;33775;47.992;11.864;2024-01-30T10:16:54;36.97;29.92;39.81;;
46749;Laerm;33775;47.992;11.864;2024-01-30T10:19:20;36.95;30.89;40.13;;
46749;Laerm;33775;47.992;11.864;2024-01-30T10:21:45;36.98;30.89;39.70;;
46749;Laerm;33775;47.992;11.864;2024-01-30T10:24:11;36.95;28.67;39.70;;
46749;Laerm;33775;47.992;11.864;2024-01-30T10:26:38;36.97;31.68;40.03;;
46749;Laerm;33775;47.992;11.864;2024-01-30T10:29:04;37.01;32.35;39.92;;
46749;Laerm;33775;47.992;11.864;2024-01-30T10:31:29;36.99;30.89;39.99;;
46749;Laerm;33775;47.992;11.864;2024-01-30T10:33:54;37.02;29.92;39.92;;
46749;Laerm;33775;47.992;11.864;2024-01-30T10:36:19;37.06;32.35;39.92;;
46749;Laerm;33775;47.992;11.864;2024-01-30T10:38:50;37.07;32.35;39.81;;
46749;Laerm;33775;47.992;11.864;2024-01-30T10:41:16;37.12;31.68;40.23;;
46749;Laerm;33775;47.992;11.864;2024-01-30T10:43:43;37.16;31.68;40.23;;
46749;Laerm;33775;47.992;11.864;2024-01-30T10:46:18;37.17;31.68;40.03;;
46749;Laerm;33775;47.992;11.864;2024-01-30T10:48:44;37.21;32.35;39.92;;
46749;Laerm;33775;47.992;11.864;2024-01-30T10:51:12;37.24;32.93;39.92;;
46749;Laerm;33775;47.992;11.864;2024-01-30T10:53:38;37.26;33.44;40.13;;
46749;Laerm;33775;47.992;11.864;2024-01-30T10:56:03;37.27;32.93;40.03;;
46749;Laerm;33775;47.992;11.864;2024-01-30T10:58:29;37.29;32.93;40.43;;
46749;Laerm;33775;47.992;11.864;2024-01-30T11:00:54;37.32;32.35;40.03;;
46749;Laerm;33775;47.992;11.864;2024-01-30T11:03:20;37.31;32.93;40.23;;
46749;Laerm;33775;47.992;11.864;2024-01-30T11:05:49;37.28;32.35;40.33;;
46749;Laerm;33775;47.992;11.864;2024-01-30T11:08:14;37.34;31.68;40.23;;
46749;Laerm;33775;47.992;11.864;2024-01-30T11:10:46;37.32;32.35;39.99;;
46749;Laerm;33775;47.992;11.864;2024-01-30T11:13:13;37.32;31.68;40.43;;
46749;Laerm;33775;47.992;11.864;2024-01-30T11:15:38;37.33;32.35;39.92;;
46749;Laerm;33775;47.992;11.864;2024-01-30T11:18:05;37.35;32.35;40.33;;
46749;Laerm;33775;47.992;11.864;2024-01-30T11:20:31;37.41;32.93;39.92;;
46749;Laerm;33775;47.992;11.864;2024-01-30T11:22:56;37.42;32.93;40.13;;
46749;Laerm;33775;47.992;11.864;2024-01-30T11:25:22;37.45;32.93;40.62;;
46749;Laerm;33775;47.992;11.864;2024-01-30T11:27:51;37.45;32.35;40.03;;
46749;Laerm;33775;47.992;11.864;2024-01-30T11:33:00;37.51;33.09;40.23;;
46749;Laerm;33775;47.992;11.864;2024-01-30T11:35:26;37.49;32.93;40.13;;
46749;Laerm;33775;47.992;11.864;2024-01-30T11:37:51;37.50;33.44;40.43;;
46749;Laerm;33775;47.992;11.864;2024-01-30T11:40:17;37.44;32.35;40.23;;
46749;Laerm;33775;47.992;11.864;2024-01-30T11:42:42;37.35;32.35;40.13;;
46749;Laerm;33775;47.992;11.864;2024-01-30T11:45:08;37.36;31.33;40.43;;
46749;Laerm;33775;47.992;11.864;2024-01-30T11:47:34;37.31;31.68;40.13;;
46749;Laerm;33775;47.992;11.864;2024-01-30T11:50:00;37.30;32.93;39.81;;
46749;Laerm;33775;47.992;11.864;2024-01-30T11:52:25;37.31;32.93;40.43;;
46749;Laerm;33775;47.992;11.864;2024-01-30T11:54:50;37.30;32.35;40.23;;
46749;Laerm;33775;47.992;11.864;2024-01-30T11:57:15;37.32;31.68;39.92;;
46749;Laerm;33775;47.992;11.864;2024-01-30T11:59:40;37.31;32.93;39.92;;
46749;Laerm;33775;47.992;11.864;2024-01-30T12:02:06;37.29;32.35;40.23;;
46749;Laerm;33775;47.992;11.864;2024-01-30T12:04:31;37.28;32.35;40.71;;
46749;Laerm;33775;47.992;11.864;2024-01-30T12:06:56;37.26;32.93;40.33;;
46749;Laerm;33775;47.992;11.864;2024-01-30T12:09:21;37.23;32.35;40.13;;
46749;Laerm;33775;47.992;11.864;2024-01-30T12:11:48;37.22;32.93;40.13;;
46749;Laerm;33775;47.992;11.864;2024-01-30T12:14:14;37.24;31.68;40.13;;
46749;Laerm;33775;47.992;11.864;2024-01-30T12:16:40;37.21;31.68;40.23;;
46749;Laerm;33775;47.992;11.864;2024-01-30T12:19:06;37.26;32.35;40.03;;
46749;Laerm;33775;47.992;11.864;2024-01-30T12:21:31;37.23;31.68;40.13;;
46749;Laerm;33775;47.992;11.864;2024-01-30T12:23:57;37.29;29.92;40.13;;
46749;Laerm;33775;47.992;11.864;2024-01-30T12:26:23;37.36;32.93;40.13;;
46749;Laerm;33775;47.992;11.864;2024-01-30T12:28:48;37.34;32.93;40.33;;
46749;Laerm;33775;47.992;11.864;2024-01-30T12:31:15;37.32;31.68;40.13;;
46749;Laerm;33775;47.992;11.864;2024-01-30T12:33:40;37.42;32.35;40.43;;
46749;Laerm;33775;47.992;11.864;2024-01-30T12:36:05;37.51;31.68;40.80;;
46749;Laerm;33775;47.992;11.864;2024-01-30T12:38:30;37.40;31.68;40.23;;
46749;Laerm;33775;47.992;11.864;2024-01-30T12:40:56;37.31;32.35;41.82;;
46749;Laerm;33775;47.992;11.864;2024-01-30T12:43:22;37.27;32.35;40.43;;
46749;Laerm;33775;47.992;11.864;2024-01-30T12:45:47;37.20;32.35;40.13;;
46749;Laerm;33775;47.992;11.864;2024-01-30T12:48:12;37.19;30.89;40.23;;
46749;Laerm;33775;47.992;11.864;2024-01-30T12:50:37;37.14;32.35;40.03;;
46749;Laerm;33775;47.992;11.864;2024-01-30T12:53:02;37.15;32.35;39.81;;
46749;Laerm;33775;47.992;11.864;2024-01-30T12:55:28;37.17;30.89;39.81;;
46749;Laerm;33775;47.992;11.864;2024-01-30T12:57:54;37.18;30.89;40.33;;
46749;Laerm;33775;47.992;11.864;2024-01-30T13:00:19;37.15;31.68;40.03;;
46749;Laerm;33775;47.992;11.864;2024-01-30T13:02:44;37.15;32.35;40.43;;
46749;Laerm;33775;47.992;11.864;2024-01-30T13:05:10;37.16;32.93;40.43;;
46749;Laerm;33775;47.992;11.864;2024-01-30T13:07:35;37.24;32.93;40.43;;
46749;Laerm;33775;47.992;11.864;2024-01-30T13:10:00;37.27;32.93;39.92;;
46749;Laerm;33775;47.992;11.864;2024-01-30T13:12:28;37.20;32.00;40.23;;
46749;Laerm;33775;47.992;11.864;2024-01-30T13:14:54;37.23;32.35;40.03;;
46749;Laerm;33775;47.992;11.864;2024-01-30T13:17:19;37.28;32.35;40.03;;
46749;Laerm;33775;47.992;11.864;2024-01-30T13:19:44;37.24;32.93;39.92;;
46749;Laerm;33775;47.992;11.864;2024-01-30T13:22:09;37.23;30.89;40.03;;
46749;Laerm;33775;47.992;11.864;2024-01-30T13:24:34;37.24;31.68;40.13;;